sensor_id;sensor_type;location;lat;lon;timestamp;pressure;altitude;pressure_sealevel;temperature;humidity
64602;BME280;51013;42.630;23.192;2022-12-07T00:01:57;91897.53;;;5.25;81.27
64602;BME280;51013;42.630;23.192;2022-12-07T00:04:26;91930.94;;;5.53;81.32
64602;BME280;51013;42.630;23.192;2022-12-07T00:06:55;91889.22;;;5.32;82.07
64602;BME280;51013;42.630;23.192;2022-12-07T00:09:22;91907.13;;;5.33;82.60
64602;BME280;51013;42.630;23.192;2022-12-07T00:11:51;91925.72;;;5.53;82.85
64602;BME280;51013;42.630;23.192;2022-12-07T00:14:18;91933.41;;;5.49;82.88
64602;BME280;51013;42.630;23.192;2022-12-07T00:16:49;91898.41;;;5.29;83.24
64602;BME280;51013;42.630;23.192;2022-12-07T00:19:17;92235.50;;;7.55;84.00
64602;BME280;51013;42.630;23.192;2022-12-07T00:21:46;92235.41;;;7.64;83.07
64602;BME280;51013;42.630;23.192;2022-12-07T00:24:13;92113.41;;;6.80;83.92
64602;BME280;51013;42.630;23.192;2022-12-07T00:26:41;92046.28;;;6.39;84.07
64602;BME280;51013;42.630;23.192;2022-12-07T00:29:13;91989.09;;;6.04;84.64
64602;BME280;51013;42.630;23.192;2022-12-07T00:31:41;92054.72;;;6.36;84.93
64602;BME280;51013;42.630;23.192;2022-12-07T00:34:13;92148.72;;;7.08;84.48
64602;BME280;51013;42.630;23.192;2022-12-07T00:36:41;92253.28;;;7.62;84.79
64602;BME280;51013;42.630;23.192;2022-12-07T00:39:08;91903.84;;;5.45;85.07
64602;BME280;51013;42.630;23.192;2022-12-07T00:41:37;91889.88;;;5.20;85.18
64602;BME280;51013;42.630;23.192;2022-12-07T00:44:04;92240.53;;;7.39;86.58
64602;BME280;51013;42.630;23.192;2022-12-07T00:46:31;91900.16;;;5.16;86.81
64602;BME280;51013;42.630;23.192;2022-12-07T00:48:59;91896.94;;;5.19;87.50
64602;BME280;51013;42.630;23.192;2022-12-07T00:51:27;91906.75;;;5.14;87.47
64602;BME280;51013;42.630;23.192;2022-12-07T00:53:54;91860.03;;;4.79;86.78
64602;BME280;51013;42.630;23.192;2022-12-07T00:56:23;91965.84;;;5.60;86.79
64602;BME280;51013;42.630;23.192;2022-12-07T00:58:52;91903.53;;;5.08;87.79
64602;BME280;51013;42.630;23.192;2022-12-07T01:01:23;92031.09;;;6.11;86.28
64602;BME280;51013;42.630;23.192;2022-12-07T01:03:53;91908.09;;;5.20;86.53
64602;BME280;51013;42.630;23.192;2022-12-07T01:06:24;91864.00;;;4.85;86.52
64602;BME280;51013;42.630;23.192;2022-12-07T01:08:53;91915.25;;;5.32;86.60
64602;BME280;51013;42.630;23.192;2022-12-07T01:11:23;92028.94;;;6.13;86.56
64602;BME280;51013;42.630;23.192;2022-12-07T01:13:53;91926.44;;;5.32;86.56
64602;BME280;51013;42.630;23.192;2022-12-07T01:16:21;91897.28;;;5.09;86.93
64602;BME280;51013;42.630;23.192;2022-12-07T01:18:51;92136.13;;;6.80;87.23
64602;BME280;51013;42.630;23.192;2022-12-07T01:21:24;92080.31;;;6.42;86.38
64602;BME280;51013;42.630;23.192;2022-12-07T01:23:56;92128.09;;;6.64;86.85
64602;BME280;51013;42.630;23.192;2022-12-07T01:26:31;91874.69;;;4.84;87.95
64602;BME280;51013;42.630;23.192;2022-12-07T01:29:06;91874.81;;;4.96;88.24
64602;BME280;51013;42.630;23.192;2022-12-07T01:31:33;91904.09;;;5.22;89.01
64602;BME280;51013;42.630;23.192;2022-12-07T01:34:02;91907.25;;;5.07;90.52
64602;BME280;51013;42.630;23.192;2022-12-07T01:36:31;91875.00;;;4.82;90.59
64602;BME280;51013;42.630;23.192;2022-12-07T01:39:02;91877.75;;;4.86;92.45
64602;BME280;51013;42.630;23.192;2022-12-07T01:41:32;91873.75;;;4.88;90.68
64602;BME280;51013;42.630;23.192;2022-12-07T01:44:11;92073.31;;;6.05;92.86
64602;BME280;51013;42.630;23.192;2022-12-07T01:46:38;91867.38;;;4.77;92.26
64602;BME280;51013;42.630;23.192;2022-12-07T01:49:09;91888.63;;;4.88;93.00
64602;BME280;51013;42.630;23.192;2022-12-07T01:51:38;91856.25;;;4.59;92.41
64602;BME280;51013;42.630;23.192;2022-12-07T01:54:10;91904.38;;;4.91;92.73
64602;BME280;51013;42.630;23.192;2022-12-07T01:56:38;91853.78;;;4.71;91.86
64602;BME280;51013;42.630;23.192;2022-12-07T01:59:07;91820.03;;;4.45;92.27
64602;BME280;51013;42.630;23.192;2022-12-07T02:01:37;91842.66;;;4.53;92.56
64602;BME280;51013;42.630;23.192;2022-12-07T02:04:05;92063.66;;;6.05;92.13
64602;BME280;51013;42.630;23.192;2022-12-07T02:06:34;91845.56;;;4.52;91.73
64602;BME280;51013;42.630;23.192;2022-12-07T02:09:02;92055.38;;;6.03;91.48
64602;BME280;51013;42.630;23.192;2022-12-07T02:11:31;91877.31;;;4.84;91.04
64602;BME280;51013;42.630;23.192;2022-12-07T02:13:58;92043.63;;;5.88;91.38
64602;BME280;51013;42.630;23.192;2022-12-07T02:16:31;92060.16;;;5.92;91.85
64602;BME280;51013;42.630;23.192;2022-12-07T02:19:21;91855.34;;;4.55;91.35
64602;BME280;51013;42.630;23.192;2022-12-07T02:21:53;91831.81;;;4.43;90.99
64602;BME280;51013;42.630;23.192;2022-12-07T02:24:42;92016.34;;;5.77;90.71
64602;BME280;51013;42.630;23.192;2022-12-07T02:27:36;92093.72;;;6.32;90.63
64602;BME280;51013;42.630;23.192;2022-12-07T02:30:06;92177.72;;;6.85;90.60
64602;BME280;51013;42.630;23.192;2022-12-07T02:32:42;91996.41;;;5.81;89.24
64602;BME280;51013;42.630;23.192;2022-12-07T02:35:12;91829.91;;;4.69;89.48
64602;BME280;51013;42.630;23.192;2022-12-07T02:37:55;91825.53;;;4.44;89.69
64602;BME280;51013;42.630;23.192;2022-12-07T02:40:29;92035.00;;;5.88;89.83
64602;BME280;51013;42.630;23.192;2022-12-07T02:43:02;92175.53;;;6.87;90.25
64602;BME280;51013;42.630;23.192;2022-12-07T02:45:36;92027.19;;;5.88;89.37
64602;BME280;51013;42.630;23.192;2022-12-07T02:48:07;91848.22;;;4.81;87.84
64602;BME280;51013;42.630;23.192;2022-12-07T02:50:36;91914.06;;;5.20;88.42
64602;BME280;51013;42.630;23.192;2022-12-07T02:53:03;92005.06;;;5.94;89.08
64602;BME280;51013;42.630;23.192;2022-12-07T02:55:35;91830.66;;;4.70;89.32
64602;BME280;51013;42.630;23.192;2022-12-07T02:58:16;91826.59;;;4.51;89.38
64602;BME280;51013;42.630;23.192;2022-12-07T03:01:03;91858.34;;;4.74;89.41
64602;BME280;51013;42.630;23.192;2022-12-07T03:03:33;91858.25;;;5.00;88.75
64602;BME280;51013;42.630;23.192;2022-12-07T03:06:08;91807.47;;;4.47;89.63
64602;BME280;51013;42.630;23.192;2022-12-07T03:08:45;92001.25;;;5.91;89.71
64602;BME280;51013;42.630;23.192;2022-12-07T03:11:18;91800.88;;;4.58;89.10
64602;BME280;51013;42.630;23.192;2022-12-07T03:13:55;91872.22;;;5.26;88.35
64602;BME280;51013;42.630;23.192;2022-12-07T03:16:33;91809.22;;;4.73;88.68
64602;BME280;51013;42.630;23.192;2022-12-07T03:19:03;92041.31;;;6.46;88.62
64602;BME280;51013;42.630;23.192;2022-12-07T03:21:38;91847.75;;;5.18;88.08
64602;BME280;51013;42.630;23.192;2022-12-07T03:24:10;91810.75;;;4.74;87.74
64602;BME280;51013;42.630;23.192;2022-12-07T03:26:42;91753.34;;;4.32;88.13
64602;BME280;51013;42.630;23.192;2022-12-07T03:29:22;91820.53;;;4.77;87.79
64602;BME280;51013;42.630;23.192;2022-12-07T03:31:54;92147.88;;;7.16;87.83
64602;BME280;51013;42.630;23.192;2022-12-07T03:34:27;92152.97;;;7.12;87.73
64602;BME280;51013;42.630;23.192;2022-12-07T03:37:03;91957.94;;;5.78;87.68
64602;BME280;51013;42.630;23.192;2022-12-07T03:39:57;91808.34;;;4.69;86.96
64602;BME280;51013;42.630;23.192;2022-12-07T03:43:03;91848.06;;;5.16;87.09
64602;BME280;51013;42.630;23.192;2022-12-07T03:45:37;91810.28;;;4.72;87.49
64602;BME280;51013;42.630;23.192;2022-12-07T03:48:27;91953.03;;;5.76;87.18
64602;BME280;51013;42.630;23.192;2022-12-07T03:51:02;91821.25;;;4.86;87.29
64602;BME280;51013;42.630;23.192;2022-12-07T03:53:46;91957.94;;;5.78;87.42
64602;BME280;51013;42.630;23.192;2022-12-07T03:56:15;91848.72;;;5.13;87.16
64602;BME280;51013;42.630;23.192;2022-12-07T03:58:47;91812.91;;;4.72;87.11
64602;BME280;51013;42.630;23.192;2022-12-07T04:01:25;91828.59;;;4.84;87.41
64602;BME280;51013;42.630;23.192;2022-12-07T04:03:58;91832.19;;;5.09;86.49
64602;BME280;51013;42.630;23.192;2022-12-07T04:06:25;92008.59;;;6.28;86.99
64602;BME280;51013;42.630;23.192;2022-12-07T04:08:55;91989.88;;;6.05;86.95
64602;BME280;51013;42.630;23.192;2022-12-07T04:11:28;91799.63;;;4.65;87.24
64602;BME280;51013;42.630;23.192;2022-12-07T04:14:07;92002.53;;;6.15;87.22
64602;BME280;51013;42.630;23.192;2022-12-07T04:17:09;91805.38;;;4.79;87.16
64602;BME280;51013;42.630;23.192;2022-12-07T04:22:25;91818.34;;;4.88;87.16
64602;BME280;51013;42.630;23.192;2022-12-07T04:27:57;92145.88;;;7.13;87.87
64602;BME280;51013;42.630;23.192;2022-12-07T04:30:28;91996.97;;;5.95;88.91
64602;BME280;51013;42.630;23.192;2022-12-07T04:32:55;92072.31;;;6.48;88.18
64602;BME280;51013;42.630;23.192;2022-12-07T04:35:22;91809.44;;;4.59;88.44
64602;BME280;51013;42.630;23.192;2022-12-07T04:37:56;92147.16;;;6.86;89.10
64602;BME280;51013;42.630;23.192;2022-12-07T04:45:30;91908.00;;;5.08;89.22
64602;BME280;51013;42.630;23.192;2022-12-07T04:48:11;92027.28;;;6.09;88.59
64602;BME280;51013;42.630;23.192;2022-12-07T04:50:55;91841.72;;;4.58;88.84
64602;BME280;51013;42.630;23.192;2022-12-07T04:53:38;92092.94;;;6.02;90.20
64602;BME280;51013;42.630;23.192;2022-12-07T18:08:43;91944.59;;;7.67;78.93
64602;BME280;51013;42.630;23.192;2022-12-07T18:14:06;91960.81;;;7.85;79.77
64602;BME280;51013;42.630;23.192;2022-12-07T18:16:33;91926.16;;;7.63;79.37
64602;BME280;51013;42.630;23.192;2022-12-07T18:19:03;91734.56;;;6.24;79.54
64602;BME280;51013;42.630;23.192;2022-12-07T18:21:34;92053.03;;;8.44;79.50
64602;BME280;51013;42.630;23.192;2022-12-07T18:24:11;92049.50;;;8.27;80.76
64602;BME280;51013;42.630;23.192;2022-12-07T18:38:02;92053.09;;;8.10;83.39
64602;BME280;51013;42.630;23.192;2022-12-07T18:41:18;91858.81;;;6.74;83.13
64602;BME280;51013;42.630;23.192;2022-12-07T18:46:47;91971.00;;;7.29;84.74
64602;BME280;51013;42.630;23.192;2022-12-07T18:49:19;91854.69;;;6.61;84.85
64602;BME280;51013;42.630;23.192;2022-12-07T18:51:48;91815.56;;;6.28;84.95
64602;BME280;51013;42.630;23.192;2022-12-07T18:54:21;92042.09;;;7.80;85.38
64602;BME280;51013;42.630;23.192;2022-12-07T18:56:51;91739.19;;;5.73;85.64
64602;BME280;51013;42.630;23.192;2022-12-07T18:59:30;91936.91;;;7.13;85.78
64602;BME280;51013;42.630;23.192;2022-12-07T19:02:15;92056.28;;;7.91;86.40
64602;BME280;51013;42.630;23.192;2022-12-07T19:07:50;91970.91;;;7.25;86.01
64602;BME280;51013;42.630;23.192;2022-12-07T19:10:35;91940.06;;;7.06;86.87
64602;BME280;51013;42.630;23.192;2022-12-07T19:13:04;91772.25;;;5.60;87.90
64602;BME280;51013;42.630;23.192;2022-12-07T19:15:33;91880.53;;;6.54;87.79
64602;BME280;51013;42.630;23.192;2022-12-07T19:18:10;91963.91;;;7.17;87.85
64602;BME280;51013;42.630;23.192;2022-12-07T19:20:38;92044.47;;;7.60;89.07
64602;BME280;51013;42.630;23.192;2022-12-07T19:23:08;91995.41;;;7.33;88.75
64602;BME280;51013;42.630;23.192;2022-12-07T19:25:35;91752.34;;;5.76;88.65
64602;BME280;51013;42.630;23.192;2022-12-07T19:30:39;91774.72;;;5.77;89.42
64602;BME280;51013;42.630;23.192;2022-12-07T19:33:09;91766.66;;;5.70;90.02
64602;BME280;51013;42.630;23.192;2022-12-07T19:38:13;91741.94;;;5.55;90.11
64602;BME280;51013;42.630;23.192;2022-12-07T19:40:43;92048.06;;;7.68;90.40
64602;BME280;51013;42.630;23.192;2022-12-07T19:43:09;91881.16;;;6.51;90.65
64602;BME280;51013;42.630;23.192;2022-12-07T19:45:36;91820.41;;;6.17;90.49
64602;BME280;51013;42.630;23.192;2022-12-07T20:08:02;91966.53;;;7.17;91.38
